sensor_id;sensor_type;location;lat;lon;timestamp;pressure;altitude;pressure_sealevel;temperature;humidity
46081;BME280;31821;51.880;-0.518;2022-09-23T00:00:25;100636.41;;;23.20;37.83
46081;BME280;31821;51.880;-0.518;2022-09-23T00:02:50;100632.03;;;23.22;37.63
46081;BME280;31821;51.880;-0.518;2022-09-23T00:05:17;100604.59;;;23.12;38.20
46081;BME280;31821;51.880;-0.518;2022-09-23T00:07:43;100621.47;;;23.12;38.09
46081;BME280;31821;51.880;-0.518;2022-09-23T00:10:09;100624.72;;;23.14;38.32
46081;BME280;31821;51.880;-0.518;2022-09-23T00:12:35;100627.47;;;23.10;37.71
46081;BME280;31821;51.880;-0.518;2022-09-23T00:15:01;100615.75;;;23.01;38.52
46081;BME280;31821;51.880;-0.518;2022-09-23T00:17:26;100617.72;;;22.97;38.40
46081;BME280;31821;51.880;-0.518;2022-09-23T00:19:52;100628.25;;;23.04;38.02
46081;BME280;31821;51.880;-0.518;2022-09-23T00:22:20;100623.41;;;23.04;38.80
46081;BME280;31821;51.880;-0.518;2022-09-23T00:24:45;100619.44;;;23.09;37.88
46081;BME280;31821;51.880;-0.518;2022-09-23T00:27:11;100612.63;;;23.10;38.41
46081;BME280;31821;51.880;-0.518;2022-09-23T00:29:36;100596.44;;;22.96;38.33
46081;BME280;31821;51.880;-0.518;2022-09-23T00:32:03;100620.63;;;23.08;38.75
46081;BME280;31821;51.880;-0.518;2022-09-23T00:34:28;100588.34;;;22.91;38.43
46081;BME280;31821;51.880;-0.518;2022-09-23T00:36:54;100610.16;;;23.05;38.55
46081;BME280;31821;51.880;-0.518;2022-09-23T00:39:22;100607.72;;;23.00;38.46
46081;BME280;31821;51.880;-0.518;2022-09-23T00:41:48;100616.59;;;23.05;37.87
46081;BME280;31821;51.880;-0.518;2022-09-23T00:47:07;100595.63;;;22.95;39.06
46081;BME280;31821;51.880;-0.518;2022-09-23T00:49:35;100565.75;;;22.76;38.63
46081;BME280;31821;51.880;-0.518;2022-09-23T00:52:07;100610.13;;;23.01;38.82
46081;BME280;31821;51.880;-0.518;2022-09-23T00:54:36;100598.06;;;22.97;37.84
46081;BME280;31821;51.880;-0.518;2022-09-23T00:57:02;100592.31;;;22.86;38.70
46081;BME280;31821;51.880;-0.518;2022-09-23T00:59:30;100604.84;;;22.92;38.52
46081;BME280;31821;51.880;-0.518;2022-09-23T01:01:58;100596.00;;;22.94;38.43
46081;BME280;31821;51.880;-0.518;2022-09-23T01:04:26;100572.56;;;22.75;38.67
46081;BME280;31821;51.880;-0.518;2022-09-23T01:06:52;100592.31;;;22.86;38.43
46081;BME280;31821;51.880;-0.518;2022-09-23T01:09:18;100604.03;;;22.95;38.58
46081;BME280;31821;51.880;-0.518;2022-09-23T01:11:56;100576.28;;;22.87;38.40
46081;BME280;31821;51.880;-0.518;2022-09-23T01:14:36;100600.03;;;22.96;39.01
46081;BME280;31821;51.880;-0.518;2022-09-23T01:17:25;100598.41;;;22.92;39.01
46081;BME280;31821;51.880;-0.518;2022-09-23T01:25:25;100592.78;;;22.92;39.23
46081;BME280;31821;51.880;-0.518;2022-09-23T01:28:01;100584.28;;;22.85;38.88
46081;BME280;31821;51.880;-0.518;2022-09-23T01:30:44;100589.91;;;22.85;38.88
46081;BME280;31821;51.880;-0.518;2022-09-23T01:36:03;100574.28;;;22.91;38.72
46081;BME280;31821;51.880;-0.518;2022-09-23T01:38:47;100576.28;;;22.87;38.96
46081;BME280;31821;51.880;-0.518;2022-09-23T01:46:46;100577.91;;;22.88;39.05
46081;BME280;31821;51.880;-0.518;2022-09-23T01:49:24;100564.28;;;22.93;38.96
46081;BME280;31821;51.880;-0.518;2022-09-23T01:51:57;100561.44;;;22.90;38.80
46081;BME280;31821;51.880;-0.518;2022-09-23T01:54:52;100557.81;;;22.89;38.91
46081;BME280;31821;51.880;-0.518;2022-09-23T01:57:28;100559.78;;;22.85;39.51
46081;BME280;31821;51.880;-0.518;2022-09-23T02:00:09;100554.94;;;22.82;39.59
46081;BME280;31821;51.880;-0.518;2022-09-23T02:02:40;100563.03;;;22.91;38.75
46081;BME280;31821;51.880;-0.518;2022-09-23T02:05:17;100544.44;;;22.75;39.31
46081;BME280;31821;51.880;-0.518;2022-09-23T02:07:57;100552.16;;;22.82;39.04
46081;BME280;31821;51.880;-0.518;2022-09-23T02:12:59;100544.09;;;22.84;38.95
46081;BME280;31821;51.880;-0.518;2022-09-23T02:15:33;100549.38;;;22.86;39.50
46081;BME280;31821;51.880;-0.518;2022-09-23T02:18:08;100525.22;;;22.81;39.00
46081;BME280;31821;51.880;-0.518;2022-09-23T02:20:37;100525.19;;;22.74;39.07
46081;BME280;31821;51.880;-0.518;2022-09-23T02:25:49;100525.19;;;22.74;39.45
46081;BME280;31821;51.880;-0.518;2022-09-23T02:28:49;100541.69;;;22.83;39.89
46081;BME280;31821;51.880;-0.518;2022-09-23T02:31:42;100537.66;;;22.80;39.59
46081;BME280;31821;51.880;-0.518;2022-09-23T02:39:14;100537.69;;;22.84;39.23
46081;BME280;31821;51.880;-0.518;2022-09-23T02:41:53;100546.97;;;22.88;38.98
46081;BME280;31821;51.880;-0.518;2022-09-23T02:44:21;100527.66;;;22.83;39.01
46081;BME280;31821;51.880;-0.518;2022-09-23T02:46:47;100537.69;;;22.84;38.66
46081;BME280;31821;51.880;-0.518;2022-09-23T02:49:20;100548.97;;;22.87;39.04
46081;BME280;31821;51.880;-0.518;2022-09-23T02:51:47;100535.19;;;22.75;39.15
46081;BME280;31821;51.880;-0.518;2022-09-23T02:54:15;100549.38;;;22.89;38.84
46081;BME280;31821;51.880;-0.518;2022-09-23T02:56:42;100533.56;;;22.70;38.73
46081;BME280;31821;51.880;-0.518;2022-09-23T02:59:08;100528.75;;;22.71;38.90
46081;BME280;31821;51.880;-0.518;2022-09-23T03:07:18;100544.47;;;22.79;39.67
46081;BME280;31821;51.880;-0.518;2022-09-23T03:14:51;100541.66;;;22.79;38.94
46081;BME280;31821;51.880;-0.518;2022-09-23T03:17:26;100544.06;;;22.77;39.28
46081;BME280;31821;51.880;-0.518;2022-09-23T03:22:34;100545.25;;;22.76;38.61
46081;BME280;31821;51.880;-0.518;2022-09-23T03:25:06;100514.19;;;22.58;39.02
46081;BME280;31821;51.880;-0.518;2022-09-23T03:27:34;100509.34;;;22.55;39.18
46081;BME280;31821;51.880;-0.518;2022-09-23T03:30:02;100544.44;;;22.75;38.97
46081;BME280;31821;51.880;-0.518;2022-09-23T03:32:29;100486.75;;;22.44;39.50
46081;BME280;31821;51.880;-0.518;2022-09-23T03:34:59;100533.22;;;22.75;39.20
46081;BME280;31821;51.880;-0.518;2022-09-23T03:37:36;100532.38;;;22.75;38.89
46081;BME280;31821;51.880;-0.518;2022-09-23T03:40:10;100515.06;;;22.69;38.89
46081;BME280;31821;51.880;-0.518;2022-09-23T03:42:38;100521.50;;;22.70;39.27
46081;BME280;31821;51.880;-0.518;2022-09-23T03:45:06;100517.09;;;22.69;38.46
46081;BME280;31821;51.880;-0.518;2022-09-23T03:47:34;100526.41;;;22.76;38.55
46081;BME280;31821;51.880;-0.518;2022-09-23T03:50:00;100506.63;;;22.69;38.54
46081;BME280;31821;51.880;-0.518;2022-09-23T03:52:26;100506.72;;;22.76;38.02
46081;BME280;31821;51.880;-0.518;2022-09-23T03:54:52;100534.09;;;22.83;37.75
46081;BME280;31821;51.880;-0.518;2022-09-23T03:57:19;100530.44;;;22.83;38.09
46081;BME280;31821;51.880;-0.518;2022-09-23T03:59:48;100523.19;;;22.78;38.09
46081;BME280;31821;51.880;-0.518;2022-09-23T04:02:15;100521.19;;;22.78;38.59
46081;BME280;31821;51.880;-0.518;2022-09-23T04:04:41;100525.25;;;22.85;37.79
46081;BME280;31821;51.880;-0.518;2022-09-23T04:07:08;100503.88;;;22.73;38.24
46081;BME280;31821;51.880;-0.518;2022-09-23T04:09:35;100516.38;;;22.79;38.50
46081;BME280;31821;51.880;-0.518;2022-09-23T04:12:01;100498.22;;;22.69;38.03
46081;BME280;31821;51.880;-0.518;2022-09-23T04:14:28;100501.91;;;22.77;38.23
46081;BME280;31821;51.880;-0.518;2022-09-23T04:16:53;100522.88;;;22.87;38.55
46081;BME280;31821;51.880;-0.518;2022-09-23T04:19:19;100523.66;;;22.87;38.08
46081;BME280;31821;51.880;-0.518;2022-09-23T04:21:44;100522.88;;;22.87;37.95
46081;BME280;31821;51.880;-0.518;2022-09-23T04:24:11;100522.88;;;22.87;38.05
46081;BME280;31821;51.880;-0.518;2022-09-23T04:26:37;100510.00;;;22.82;38.23
46081;BME280;31821;51.880;-0.518;2022-09-23T04:29:04;100517.16;;;22.79;38.22
46081;BME280;31821;51.880;-0.518;2022-09-23T04:31:31;100505.09;;;22.72;38.07
46081;BME280;31821;51.880;-0.518;2022-09-23T04:33:56;100509.53;;;22.76;38.17
46081;BME280;31821;51.880;-0.518;2022-09-23T04:36:22;100519.25;;;22.86;37.51
46081;BME280;31821;51.880;-0.518;2022-09-23T04:38:48;100515.97;;;22.80;37.96
46081;BME280;31821;51.880;-0.518;2022-09-23T04:41:15;100521.28;;;22.89;38.04
46081;BME280;31821;51.880;-0.518;2022-09-23T04:43:41;100539.00;;;22.93;37.71
46081;BME280;31821;51.880;-0.518;2022-09-23T04:46:08;100525.72;;;22.90;37.84
46081;BME280;31821;51.880;-0.518;2022-09-23T04:48:36;100530.56;;;22.93;37.72
46081;BME280;31821;51.880;-0.518;2022-09-23T04:51:13;100524.13;;;22.93;37.73
46081;BME280;31821;51.880;-0.518;2022-09-23T04:53:41;100526.91;;;22.89;38.00
46081;BME280;31821;51.880;-0.518;2022-09-23T04:56:12;100525.72;;;22.90;38.39
46081;BME280;31821;51.880;-0.518;2022-09-23T04:58:39;100517.63;;;22.85;38.01
46081;BME280;31821;51.880;-0.518;2022-09-23T05:01:09;100535.38;;;22.96;37.61
46081;BME280;31821;51.880;-0.518;2022-09-23T05:03:35;100532.94;;;22.91;37.95
46081;BME280;31821;51.880;-0.518;2022-09-23T05:06:01;100515.63;;;22.86;37.45
46081;BME280;31821;51.880;-0.518;2022-09-23T05:08:26;100505.09;;;22.75;37.45
46081;BME280;31821;51.880;-0.518;2022-09-23T05:11:00;100521.72;;;22.91;36.92
46081;BME280;31821;51.880;-0.518;2022-09-23T05:13:26;100534.66;;;23.03;37.41
46081;BME280;31821;51.880;-0.518;2022-09-23T05:15:59;100529.88;;;23.07;37.37
46081;BME280;31821;51.880;-0.518;2022-09-23T05:18:27;100504.44;;;22.93;37.29
46081;BME280;31821;51.880;-0.518;2022-09-23T05:20:55;100518.50;;;22.93;37.16
46081;BME280;31821;51.880;-0.518;2022-09-23T05:23:24;100540.25;;;23.00;37.32
46081;BME280;31821;51.880;-0.518;2022-09-23T05:25:57;100539.81;;;22.98;37.06
46081;BME280;31821;51.880;-0.518;2022-09-23T05:28:24;100534.19;;;22.98;37.65
46081;BME280;31821;51.880;-0.518;2022-09-23T05:30:50;100493.84;;;22.72;37.47
46081;BME280;31821;51.880;-0.518;2022-09-23T05:33:15;100529.34;;;22.94;37.46
46081;BME280;31821;51.880;-0.518;2022-09-23T05:35:47;100520.88;;;22.91;37.10
46081;BME280;31821;51.880;-0.518;2022-09-23T05:38:13;100542.66;;;23.01;36.90
46081;BME280;31821;51.880;-0.518;2022-09-23T05:40:41;100549.13;;;23.05;36.90
46081;BME280;31821;51.880;-0.518;2022-09-23T05:43:06;100536.63;;;22.99;37.00
46081;BME280;31821;51.880;-0.518;2022-09-23T05:45:32;100541.09;;;23.04;37.27
46081;BME280;31821;51.880;-0.518;2022-09-23T05:47:57;100542.25;;;22.99;36.76
46081;BME280;31821;51.880;-0.518;2022-09-23T05:50:23;100530.19;;;22.99;37.43
46081;BME280;31821;51.880;-0.518;2022-09-23T05:52:48;100550.69;;;22.99;37.12
46081;BME280;31821;51.880;-0.518;2022-09-23T05:55:14;100554.34;;;23.07;36.72
46081;BME280;31821;51.880;-0.518;2022-09-23T05:57:40;100554.00;;;23.12;36.58
46081;BME280;31821;51.880;-0.518;2022-09-23T06:00:06;100556.41;;;23.14;37.12
46081;BME280;31821;51.880;-0.518;2022-09-23T06:02:31;100532.94;;;22.91;37.31
46081;BME280;31821;51.880;-0.518;2022-09-23T06:04:57;100562.78;;;23.07;37.17
46081;BME280;31821;51.880;-0.518;2022-09-23T06:07:22;100555.84;;;22.93;36.80
46081;BME280;31821;51.880;-0.518;2022-09-23T06:09:48;100546.66;;;23.00;36.61
46081;BME280;31821;51.880;-0.518;2022-09-23T06:12:14;100563.16;;;23.02;36.97
46081;BME280;31821;51.880;-0.518;2022-09-23T06:14:40;100566.66;;;22.88;36.90
46081;BME280;31821;51.880;-0.518;2022-09-23T06:17:05;100592.03;;;22.99;37.25
46081;BME280;31821;51.880;-0.518;2022-09-23T06:19:31;100581.16;;;22.93;36.93
46081;BME280;31821;51.880;-0.518;2022-09-23T06:21:56;100572.31;;;22.91;36.96
46081;BME280;31821;51.880;-0.518;2022-09-23T06:24:22;100586.34;;;22.91;37.48
46081;BME280;31821;51.880;-0.518;2022-09-23T06:26:47;100560.13;;;22.76;37.33
46081;BME280;31821;51.880;-0.518;2022-09-23T06:29:13;100590.81;;;22.96;37.50
46081;BME280;31821;51.880;-0.518;2022-09-23T06:31:39;100579.09;;;22.87;37.09
46081;BME280;31821;51.880;-0.518;2022-09-23T06:34:08;100595.63;;;22.95;36.78
46081;BME280;31821;51.880;-0.518;2022-09-23T06:36:34;100594.06;;;22.98;36.98
46081;BME280;31821;51.880;-0.518;2022-09-23T06:39:00;100582.34;;;22.92;36.67
46081;BME280;31821;51.880;-0.518;2022-09-23T06:41:26;100594.06;;;22.98;36.61
46081;BME280;31821;51.880;-0.518;2022-09-23T06:43:52;100593.66;;;23.00;36.60
46081;BME280;31821;51.880;-0.518;2022-09-23T06:46:17;100587.56;;;22.94;36.81
46081;BME280;31821;51.880;-0.518;2022-09-23T06:48:45;100596.47;;;23.00;36.99
46081;BME280;31821;51.880;-0.518;2022-09-23T06:51:12;100557.72;;;22.78;36.66
46081;BME280;31821;51.880;-0.518;2022-09-23T06:53:44;100598.47;;;22.99;37.18
46081;BME280;31821;51.880;-0.518;2022-09-23T06:56:10;100592.47;;;23.01;37.53
46081;BME280;31821;51.880;-0.518;2022-09-23T06:58:36;100599.69;;;23.02;36.82
46081;BME280;31821;51.880;-0.518;2022-09-23T07:01:07;100598.09;;;23.04;37.20
46081;BME280;31821;51.880;-0.518;2022-09-23T07:03:33;100598.47;;;22.99;36.51
46081;BME280;31821;51.880;-0.518;2022-09-23T07:05:59;100586.41;;;22.99;36.89
46081;BME280;31821;51.880;-0.518;2022-09-23T07:08:26;100600.50;;;23.02;36.88
46081;BME280;31821;51.880;-0.518;2022-09-23T07:10:56;100595.56;;;22.88;36.98
46081;BME280;31821;51.880;-0.518;2022-09-23T07:13:22;100597.69;;;23.02;36.74
46081;BME280;31821;51.880;-0.518;2022-09-23T07:15:52;100608.91;;;22.99;36.47
46081;BME280;31821;51.880;-0.518;2022-09-23T07:18:19;100608.91;;;22.99;36.94
46081;BME280;31821;51.880;-0.518;2022-09-23T07:20:47;100597.25;;;23.00;36.64
46081;BME280;31821;51.880;-0.518;2022-09-23T07:23:13;100570.19;;;22.81;36.52
46081;BME280;31821;51.880;-0.518;2022-09-23T07:25:39;100603.66;;;22.93;37.51
46081;BME280;31821;51.880;-0.518;2022-09-23T07:28:05;100609.97;;;22.83;41.81
46081;BME280;31821;51.880;-0.518;2022-09-23T07:30:34;100563.03;;;22.49;41.83
46081;BME280;31821;51.880;-0.518;2022-09-23T07:33:00;100609.28;;;22.56;44.10
46081;BME280;31821;51.880;-0.518;2022-09-23T07:35:25;100622.78;;;22.43;44.47
46081;BME280;31821;51.880;-0.518;2022-09-23T07:37:52;100618.56;;;22.29;45.41
46081;BME280;31821;51.880;-0.518;2022-09-23T07:40:18;100614.41;;;22.19;45.36
46081;BME280;31821;51.880;-0.518;2022-09-23T07:42:43;100622.72;;;22.09;46.67
46081;BME280;31821;51.880;-0.518;2022-09-23T07:45:09;100597.81;;;21.77;46.81
46081;BME280;31821;51.880;-0.518;2022-09-23T07:47:35;100628.47;;;21.62;47.58
46081;BME280;31821;51.880;-0.518;2022-09-23T07:50:04;100611.41;;;21.48;48.27
46081;BME280;31821;51.880;-0.518;2022-09-23T07:52:30;100607.66;;;21.40;47.58
46081;BME280;31821;51.880;-0.518;2022-09-23T07:54:56;100623.56;;;21.32;48.22
46081;BME280;31821;51.880;-0.518;2022-09-23T07:57:21;100625.06;;;21.26;48.53
46081;BME280;31821;51.880;-0.518;2022-09-23T07:59:46;100634.72;;;21.29;49.00
46081;BME280;31821;51.880;-0.518;2022-09-23T08:02:12;100633.81;;;21.21;48.13
46081;BME280;31821;51.880;-0.518;2022-09-23T08:04:40;100615.44;;;21.00;48.91
46081;BME280;31821;51.880;-0.518;2022-09-23T08:07:06;100628.38;;;21.08;49.22
46081;BME280;31821;51.880;-0.518;2022-09-23T08:09:38;100630.16;;;21.44;47.62
46081;BME280;31821;51.880;-0.518;2022-09-23T08:12:16;100633.56;;;21.80;47.23
46081;BME280;31821;51.880;-0.518;2022-09-23T08:14:42;100641.16;;;21.79;47.67
46081;BME280;31821;51.880;-0.518;2022-09-23T08:17:08;100636.72;;;21.78;47.77
46081;BME280;31821;51.880;-0.518;2022-09-23T08:19:35;100632.53;;;21.65;47.05
46081;BME280;31821;51.880;-0.518;2022-09-23T08:22:00;100636.88;;;21.62;46.85
46081;BME280;31821;51.880;-0.518;2022-09-23T08:24:26;100644.88;;;21.60;47.22
46081;BME280;31821;51.880;-0.518;2022-09-23T08:26:53;100652.16;;;21.65;46.96
46081;BME280;31821;51.880;-0.518;2022-09-23T08:29:23;100651.16;;;21.53;47.38
46081;BME280;31821;51.880;-0.518;2022-09-23T08:31:49;100665.00;;;21.66;47.37
46081;BME280;31821;51.880;-0.518;2022-09-23T08:34:21;100629.56;;;21.57;46.60
46081;BME280;31821;51.880;-0.518;2022-09-23T08:36:47;100660.59;;;21.65;46.99
46081;BME280;31821;51.880;-0.518;2022-09-23T08:39:14;100622.19;;;21.46;46.45
46081;BME280;31821;51.880;-0.518;2022-09-23T08:44:28;100645.00;;;20.98;47.01
46081;BME280;31821;51.880;-0.518;2022-09-23T08:50:03;100669.22;;;21.56;45.75
46081;BME280;31821;51.880;-0.518;2022-09-23T08:52:41;100673.91;;;21.71;45.85
46081;BME280;31821;51.880;-0.518;2022-09-23T08:55:11;100651.19;;;22.07;44.58
46081;BME280;31821;51.880;-0.518;2022-09-23T08:57:44;100642.44;;;21.85;45.38
46081;BME280;31821;51.880;-0.518;2022-09-23T09:00:19;100661.63;;;22.10;44.98
46081;BME280;31821;51.880;-0.518;2022-09-23T09:02:46;100665.22;;;22.07;44.98
46081;BME280;31821;51.880;-0.518;2022-09-23T09:05:16;100657.63;;;22.11;45.14
46081;BME280;31821;51.880;-0.518;2022-09-23T09:07:44;100661.63;;;22.10;45.25
46081;BME280;31821;51.880;-0.518;2022-09-23T09:10:17;100658.78;;;22.37;44.31
46081;BME280;31821;51.880;-0.518;2022-09-23T09:13:04;100651.09;;;22.64;44.19
46081;BME280;31821;51.880;-0.518;2022-09-23T09:15:35;100659.41;;;22.54;43.50
46081;BME280;31821;51.880;-0.518;2022-09-23T09:18:05;100663.69;;;22.44;44.63
46081;BME280;31821;51.880;-0.518;2022-09-23T09:20:50;100667.59;;;22.36;44.32
46081;BME280;31821;51.880;-0.518;2022-09-23T09:23:32;100663.22;;;22.38;43.92
46081;BME280;31821;51.880;-0.518;2022-09-23T09:26:02;100669.63;;;22.08;44.60
46081;BME280;31821;51.880;-0.518;2022-09-23T09:28:33;100671.50;;;22.27;44.20
46081;BME280;31821;51.880;-0.518;2022-09-23T09:31:04;100662.81;;;22.40;44.14
46081;BME280;31821;51.880;-0.518;2022-09-23T09:33:43;100657.00;;;22.25;45.08
46081;BME280;31821;51.880;-0.518;2022-09-23T09:38:46;100682.94;;;21.84;45.37
46081;BME280;31821;51.880;-0.518;2022-09-23T09:41:16;100673.47;;;21.96;45.57
46081;BME280;31821;51.880;-0.518;2022-09-23T09:43:44;100669.25;;;21.83;45.72
46081;BME280;31821;51.880;-0.518;2022-09-23T09:49:35;100659.16;;;22.36;43.89
46081;BME280;31821;51.880;-0.518;2022-09-23T09:52:21;100653.78;;;22.23;44.74
46081;BME280;31821;51.880;-0.518;2022-09-23T09:54:48;100652.00;;;22.38;44.35
46081;BME280;31821;51.880;-0.518;2022-09-23T09:57:16;100662.25;;;22.57;43.43
46081;BME280;31821;51.880;-0.518;2022-09-23T09:59:42;100653.38;;;22.52;44.61
46081;BME280;31821;51.880;-0.518;2022-09-23T10:02:24;100652.22;;;22.94;42.26
46081;BME280;31821;51.880;-0.518;2022-09-23T10:05:01;100652.03;;;23.17;42.64
46081;BME280;31821;51.880;-0.518;2022-09-23T10:07:31;100656.75;;;23.47;41.66
46081;BME280;31821;51.880;-0.518;2022-09-23T10:09:57;100649.47;;;23.42;41.05
46081;BME280;31821;51.880;-0.518;2022-09-23T10:12:23;100605.28;;;23.39;40.62
46081;BME280;31821;51.880;-0.518;2022-09-23T10:14:50;100649.91;;;23.45;41.52
46081;BME280;31821;51.880;-0.518;2022-09-23T10:17:22;100640.91;;;23.24;41.23
46081;BME280;31821;51.880;-0.518;2022-09-23T10:19:58;100647.47;;;23.39;41.07
46081;BME280;31821;51.880;-0.518;2022-09-23T10:22:26;100649.44;;;23.39;40.26
46081;BME280;31821;51.880;-0.518;2022-09-23T10:24:55;100649.38;;;23.28;41.59
46081;BME280;31821;51.880;-0.518;2022-09-23T10:27:31;100646.41;;;23.17;40.94
46081;BME280;31821;51.880;-0.518;2022-09-23T10:29:58;100649.25;;;22.79;42.07
46081;BME280;31821;51.880;-0.518;2022-09-23T10:32:25;100653.50;;;22.62;41.90
46081;BME280;31821;51.880;-0.518;2022-09-23T10:34:53;100658.78;;;22.37;43.14
46081;BME280;31821;51.880;-0.518;2022-09-23T10:37:26;100651.34;;;22.48;43.13
46081;BME280;31821;51.880;-0.518;2022-09-23T10:39:54;100655.16;;;22.37;43.42
46081;BME280;31821;51.880;-0.518;2022-09-23T10:42:51;100660.78;;;22.37;43.88
46081;BME280;31821;51.880;-0.518;2022-09-23T10:45:37;100652.47;;;22.44;43.14
46081;BME280;31821;51.880;-0.518;2022-09-23T10:48:25;100659.63;;;22.72;42.99
46081;BME280;31821;51.880;-0.518;2022-09-23T10:50:53;100657.69;;;22.42;43.09
46081;BME280;31821;51.880;-0.518;2022-09-23T11:18:51;100638.16;;;22.56;42.69
46081;BME280;31821;51.880;-0.518;2022-09-23T11:24:09;100629.06;;;22.67;42.36
46081;BME280;31821;51.880;-0.518;2022-09-23T11:36:56;100622.63;;;23.04;40.84
46081;BME280;31821;51.880;-0.518;2022-09-23T11:39:24;100627.56;;;22.76;41.20
46081;BME280;31821;51.880;-0.518;2022-09-23T11:41:52;100624.03;;;22.49;41.29
46081;BME280;31821;51.880;-0.518;2022-09-23T11:44:21;100625.66;;;22.50;42.16
46081;BME280;31821;51.880;-0.518;2022-09-23T11:46:49;100623.19;;;22.45;41.67
46081;BME280;31821;51.880;-0.518;2022-09-23T11:49:29;100635.00;;;22.27;42.01
46081;BME280;31821;51.880;-0.518;2022-09-23T11:54:33;100625.28;;;22.52;41.45
46081;BME280;31821;51.880;-0.518;2022-09-23T11:57:02;100620.94;;;22.58;41.85
46081;BME280;31821;51.880;-0.518;2022-09-23T12:02:18;100622.66;;;22.70;41.88
46081;BME280;31821;51.880;-0.518;2022-09-23T12:04:47;100620.00;;;22.46;42.35
46081;BME280;31821;51.880;-0.518;2022-09-23T12:07:17;100616.22;;;22.35;42.27
46081;BME280;31821;51.880;-0.518;2022-09-23T12:09:56;100611.53;;;22.43;42.48
46081;BME280;31821;51.880;-0.518;2022-09-23T12:12:33;100612.63;;;22.69;42.25
46081;BME280;31821;51.880;-0.518;2022-09-23T12:15:04;100606.28;;;22.75;41.12
46081;BME280;31821;51.880;-0.518;2022-09-23T12:17:52;100596.97;;;23.13;41.20
46081;BME280;31821;51.880;-0.518;2022-09-23T12:20:31;100586.38;;;23.40;40.85
46081;BME280;31821;51.880;-0.518;2022-09-23T12:23:07;100587.97;;;23.37;39.92
46081;BME280;31821;51.880;-0.518;2022-09-23T12:28:18;100586.06;;;23.52;39.71
46081;BME280;31821;51.880;-0.518;2022-09-23T12:30:45;100581.97;;;23.46;40.29
46081;BME280;31821;51.880;-0.518;2022-09-23T12:33:27;100585.22;;;23.48;40.06
46081;BME280;31821;51.880;-0.518;2022-09-23T12:36:07;100582.84;;;23.02;40.43
46081;BME280;31821;51.880;-0.518;2022-09-23T12:39:12;100577.38;;;23.20;41.13
46081;BME280;31821;51.880;-0.518;2022-09-23T12:41:35;100584.72;;;23.32;40.19
46081;BME280;31821;51.880;-0.518;2022-09-23T12:46:38;100575.28;;;23.65;38.95
46081;BME280;31821;51.880;-0.518;2022-09-23T12:49:04;100568.41;;;23.59;39.63
46081;BME280;31821;51.880;-0.518;2022-09-23T12:51:31;100569.16;;;23.49;39.89
46081;BME280;31821;51.880;-0.518;2022-09-23T12:59:10;100566.41;;;23.07;40.67
46081;BME280;31821;51.880;-0.518;2022-09-23T13:01:44;100567.97;;;23.05;41.15
46081;BME280;31821;51.880;-0.518;2022-09-23T13:07:17;100565.28;;;22.71;41.77
46081;BME280;31821;51.880;-0.518;2022-09-23T13:09:47;100567.81;;;22.83;40.95
46081;BME280;31821;51.880;-0.518;2022-09-23T13:12:18;100569.63;;;22.64;40.96
46081;BME280;31821;51.880;-0.518;2022-09-23T13:14:45;100571.72;;;22.75;41.56
46081;BME280;31821;51.880;-0.518;2022-09-23T13:17:28;100564.09;;;22.72;40.86
46081;BME280;31821;51.880;-0.518;2022-09-23T13:20:05;100562.06;;;22.34;42.17
46081;BME280;31821;51.880;-0.518;2022-09-23T13:22:41;100564.25;;;22.48;41.83
46081;BME280;31821;51.880;-0.518;2022-09-23T13:25:24;100560.16;;;22.80;40.53
46081;BME280;31821;51.880;-0.518;2022-09-23T13:27:54;100550.13;;;22.83;40.51
46081;BME280;31821;51.880;-0.518;2022-09-23T13:30:21;100555.44;;;22.91;40.69
46081;BME280;31821;51.880;-0.518;2022-09-23T13:35:35;100513.50;;;22.72;40.09
46081;BME280;31821;51.880;-0.518;2022-09-23T13:38:09;100554.44;;;23.14;40.07
46081;BME280;31821;51.880;-0.518;2022-09-23T13:40:35;100554.44;;;23.14;39.32
46081;BME280;31821;51.880;-0.518;2022-09-23T13:43:02;100549.16;;;23.09;39.53
46081;BME280;31821;51.880;-0.518;2022-09-23T13:45:29;100555.44;;;22.91;39.30
46081;BME280;31821;51.880;-0.518;2022-09-23T13:47:59;100552.91;;;22.79;40.11
46081;BME280;31821;51.880;-0.518;2022-09-23T13:50:26;100545.91;;;23.07;39.15
46081;BME280;31821;51.880;-0.518;2022-09-23T13:52:56;100547.66;;;22.74;38.93
46081;BME280;31821;51.880;-0.518;2022-09-23T13:55:24;100549.22;;;22.71;39.67
46081;BME280;31821;51.880;-0.518;2022-09-23T13:57:57;100556.00;;;22.67;39.40
46081;BME280;31821;51.880;-0.518;2022-09-23T14:00:23;100542.63;;;22.98;39.35
46081;BME280;31821;51.880;-0.518;2022-09-23T14:02:49;100547.19;;;23.17;39.47
46081;BME280;31821;51.880;-0.518;2022-09-23T14:05:25;100536.75;;;23.17;39.37
46081;BME280;31821;51.880;-0.518;2022-09-23T14:07:51;100531.75;;;23.48;38.46
46081;BME280;31821;51.880;-0.518;2022-09-23T14:10:19;100530.94;;;23.44;38.32
46081;BME280;31821;51.880;-0.518;2022-09-23T14:12:46;100489.06;;;23.28;38.11
46081;BME280;31821;51.880;-0.518;2022-09-23T14:15:13;100535.25;;;23.27;38.68
46081;BME280;31821;51.880;-0.518;2022-09-23T14:17:39;100532.47;;;23.34;37.61
46081;BME280;31821;51.880;-0.518;2022-09-23T14:20:10;100528.81;;;23.30;37.26
46081;BME280;31821;51.880;-0.518;2022-09-23T14:22:37;100530.59;;;23.01;37.35
46081;BME280;31821;51.880;-0.518;2022-09-23T14:25:02;100533.94;;;23.17;38.02
46081;BME280;31821;51.880;-0.518;2022-09-23T14:27:31;100521.78;;;23.02;37.87
46081;BME280;31821;51.880;-0.518;2022-09-23T14:29:56;100518.59;;;23.04;38.04
46081;BME280;31821;51.880;-0.518;2022-09-23T14:32:23;100512.00;;;22.85;38.75
46081;BME280;31821;51.880;-0.518;2022-09-23T14:34:53;100516.56;;;23.04;38.91
46081;BME280;31821;51.880;-0.518;2022-09-23T14:37:37;100513.06;;;23.18;38.45
46081;BME280;31821;51.880;-0.518;2022-09-23T14:40:26;100509.19;;;23.34;38.49
46081;BME280;31821;51.880;-0.518;2022-09-23T14:45:37;100510.38;;;23.29;38.68
46081;BME280;31821;51.880;-0.518;2022-09-23T14:50:29;100512.06;;;23.48;37.99